Westchester, California
Current Conditions -  °F | °C
As of 3:53 AM on Tuesday 27 Jan 2015 (Local Time) from KLAX Reporting Station
Broken Clouds Broken Clouds  
Wind Chill: 55°   Ceiling: 9000
Heat Index: 55°   Visibility: 10mi
Dew Point: 53°   Wind: 0mph
Humidity: 93%   Direction: NA
Pressure: 30.13"   Gusts: NA
Location:  33.9534°N, 118.399°W
Report Text: KLAX 271153Z 00000KT 10SM FEW040 BKN090 BKN130 BKN180 13/12 A3013 RMK AO2 RAB24E48 SLP200 P0000 60000 70013 T01280117 10144 20122 53004
Loading
Personal Weather Stations






























Interactive Weather Map New forecast layout! Learn more

10-Day Weather Forecast

Advertisements
Track Severe Weather on mobile